Time;durP1;ratioP1;P1;durP2;ratioP2;P2;SDS_P1;SDS_P2;PMS_P1;PMS_P2;Temp;Humidity;BMP_temperature;BMP_pressure;BME280_temperature;BME280_humidity;BME280_pressure;Samples;Min_cycle;Max_cycle;Signal;HPM_P1;HPM_P2
2021/08/24 00:00:20;;;;;;;6.80;3.53;;;563.60;2380.80;;;;;;5102743;28;20028;-79
2021/08/24 00:02:46;;;;;;;5.82;3.60;;;563.60;2355.20;;;;;;5092007;28;20073;-84
2021/08/24 00:05:18;;;;;;;9.73;3.95;;;563.60;2355.20;;;;;;5094082;28;20024;-84
2021/08/24 00:07:44;;;;;;;6.25;3.95;;;563.50;2355.20;;;;;;5091313;28;20032;-83
2021/08/24 00:10:12;;;;;;;4.95;3.67;;;563.40;2380.80;;;;;;5094549;28;20027;-84
2021/08/24 00:12:38;;;;;;;4.63;3.08;;;563.50;2380.80;;;;;;5076034;28;20537;-83
2021/08/24 00:15:06;;;;;;;4.95;3.47;;;563.50;2380.80;;;;;;5076138;28;20032;-75
2021/08/24 00:17:32;;;;;;;5.63;3.65;;;563.50;2380.80;;;;;;5093690;28;20027;-83
2021/08/24 00:19:57;;;;;;;7.57;3.55;;;563.60;2355.20;;;;;;5093826;28;20032;-83
2021/08/24 00:22:23;;;;;;;6.93;3.90;;;563.60;2355.20;;;;;;5093882;28;20023;-83
2021/08/24 00:24:49;;;;;;;7.35;3.78;;;563.60;2355.20;;;;;;5093636;28;20386;-75
2021/08/24 00:27:18;;;;;;;7.55;4.50;;;563.60;2355.20;;;;;;5093792;28;20012;-81
2021/08/24 00:29:44;;;;;;;10.07;4.15;;;563.60;2355.20;;;;;;5090964;28;20077;-82
2021/08/24 00:32:09;;;;;;;7.40;4.03;;;563.50;2380.80;;;;;;5093388;28;20020;-83
2021/08/24 00:34:35;;;;;;;9.07;4.45;;;563.30;2406.40;;;;;;5093341;28;20489;-82
2021/08/24 00:37:01;;;;;;;7.03;4.60;;;563.50;2380.80;;;;;;5093371;28;20099;-82
2021/08/24 00:39:27;;;;;;;6.30;4.13;;;563.40;2406.40;;;;;;5094171;28;20024;-83
2021/08/24 00:41:52;;;;;;;7.60;4.75;;;563.40;2406.40;;;;;;5098998;28;20472;-83
2021/08/24 00:44:18;;;;;;;8.50;5.47;;;563.40;2406.40;;;;;;5094406;28;20020;-83
2021/08/24 00:46:50;;;;;;;8.43;4.30;;;563.40;2406.40;;;;;;5094092;28;20020;-83
2021/08/24 00:49:25;;;;;;;6.93;4.38;;;563.40;2406.40;;;;;;5093110;28;20558;-83
2021/08/24 00:52:09;;;;;;;9.00;5.43;;;563.60;2380.80;;;;;;5090889;28;20023;-81
2021/08/24 00:54:36;;;;;;;9.13;5.35;;;563.50;2406.40;;;;;;5070075;28;20072;-76
2021/08/24 00:57:07;;;;;;;8.98;5.65;;;563.50;2406.40;;;;;;5093501;28;20085;-80
2021/08/24 00:59:34;;;;;;;9.00;5.80;;;563.60;2406.40;;;;;;5091283;28;20091;-81
2021/08/24 01:02:00;;;;;;;13.95;6.30;;;563.50;2406.40;;;;;;5092669;28;20027;-80
2021/08/24 01:04:29;;;;;;;10.18;6.38;;;538.50;2406.40;;;;;;5093251;28;20392;-83
2021/08/24 01:07:15;;;;;;;7.75;6.57;;;538.40;2406.40;;;;;;5093177;28;20028;-76
2021/08/24 01:09:53;;;;;;;10.60;7.53;;;538.40;2406.40;;;;;;5079316;28;20032;-79
2021/08/24 01:12:59;;;;;;;10.02;6.18;;;538.30;2406.40;;;;;;5090870;28;20115;-76
2021/08/24 01:15:25;;;;;;;11.20;6.30;;;538.10;2406.40;;;;;;5089281;28;20016;-83
2021/08/24 01:18:11;;;;;;;11.30;6.70;;;538.50;2406.40;;;;;;5093453;28;20127;-82
2021/08/24 01:21:21;;;;;;;10.15;6.15;;;538.50;2406.40;;;;;;5088504;28;20020;-81
2021/08/24 01:24:08;;;;;;;9.68;6.47;;;563.30;2432.00;;;;;;5092044;28;20028;-81
2021/08/24 01:26:51;;;;;;;7.55;5.95;;;563.40;2432.00;;;;;;5074617;28;20103;-82
2021/08/24 01:29:26;;;;;;;8.57;5.75;;;563.60;2406.40;;;;;;5103608;28;20069;-75
2021/08/24 01:32:00;;;;;;;9.02;6.15;;;563.70;2406.40;;;;;;5091121;28;20035;-75
2021/08/24 01:35:02;;;;;;;8.15;5.72;;;563.70;2406.40;;;;;;5092706;28;20448;-75
2021/08/24 01:37:37;;;;;;;8.73;5.53;;;563.50;2406.40;;;;;;5092054;28;20106;-75
2021/08/24 01:40:14;;;;;;;7.72;5.50;;;563.30;2432.00;;;;;;5074550;28;20032;-80
2021/08/24 01:42:41;;;;;;;10.65;6.20;;;563.20;2432.00;;;;;;5093100;28;20023;-75
2021/08/24 01:45:14;;;;;;;8.65;6.38;;;538.50;2406.40;;;;;;5093117;28;20031;-82
2021/08/24 01:47:46;;;;;;;8.38;5.60;;;563.30;2432.00;;;;;;5093150;28;20404;-76
2021/08/24 01:50:21;;;;;;;10.20;5.82;;;563.30;2432.00;;;;;;5092693;28;20032;-75
2021/08/24 01:53:15;;;;;;;7.78;5.28;;;563.30;2432.00;;;;;;5093145;28;20016;-82
2021/08/24 01:55:48;;;;;;;8.18;5.65;;;563.30;2432.00;;;;;;5050926;28;20063;-77
2021/08/24 01:58:24;;;;;;;7.63;5.22;;;563.40;2406.40;;;;;;5050851;28;20033;-83
2021/08/24 02:00:54;;;;;;;6.53;5.10;;;563.70;2380.80;;;;;;5051004;28;20036;-75
2021/08/24 02:03:31;;;;;;;7.35;5.93;;;563.70;2380.80;;;;;;5051009;28;20036;-75
2021/08/24 02:06:05;;;;;;;9.23;5.22;;;563.70;2380.80;;;;;;5054787;28;20037;-84
2021/08/24 02:08:34;;;;;;;6.88;5.03;;;563.60;2406.40;;;;;;5054572;28;20033;-75
2021/08/24 02:11:02;;;;;;;7.35;4.93;;;563.70;2380.80;;;;;;5054917;28;20030;-76
2021/08/24 02:13:37;;;;;;;9.02;5.25;;;563.60;2406.40;;;;;;5054591;28;20051;-83
2021/08/24 02:16:05;;;;;;;7.80;5.15;;;563.60;2380.80;;;;;;5054800;28;20064;-77
2021/08/24 02:18:35;;;;;;;10.90;5.13;;;563.50;2380.80;;;;;;5054790;28;20025;-75
2021/08/24 02:21:18;;;;;;;9.18;4.80;;;563.70;2355.20;;;;;;5054411;28;20501;-84
2021/08/24 02:23:48;;;;;;;8.15;4.85;;;563.40;2406.40;;;;;;5054263;28;20025;-76
2021/08/24 02:26:16;;;;;;;6.53;5.45;;;563.40;2406.40;;;;;;5054008;28;20087;-76
2021/08/24 02:28:52;;;;;;;8.20;4.70;;;563.50;2406.40;;;;;;5053609;28;20037;-83
2021/08/24 02:31:28;;;;;;;14.25;6.20;;;563.50;2380.80;;;;;;5051229;28;20021;-84
2021/08/24 02:34:30;;;;;;;8.05;5.82;;;563.50;2432.00;;;;;;5099302;28;20040;-84
2021/08/24 02:37:03;;;;;;;8.05;5.32;;;538.50;2406.40;;;;;;5027921;28;20077;-84
2021/08/24 02:39:37;;;;;;;7.13;5.57;;;563.40;2432.00;;;;;;5031783;28;20108;-83
2021/08/24 02:42:24;;;;;;;9.13;6.22;;;563.70;2432.00;;;;;;5030026;28;20030;-78
2021/08/24 02:44:56;;;;;;;7.50;5.75;;;563.70;2432.00;;;;;;5031334;28;20545;-83
2021/08/24 02:47:23;;;;;;;8.55;4.85;;;563.50;2432.00;;;;;;5031549;28;20044;-76
2021/08/24 02:49:50;;;;;;;7.10;5.43;;;563.70;2432.00;;;;;;5032760;28;20029;-83
2021/08/24 02:52:16;;;;;;;7.43;5.68;;;563.70;2406.40;;;;;;5030106;28;20097;-76
2021/08/24 02:54:46;;;;;;;10.25;6.53;;;563.70;2432.00;;;;;;5029664;28;20132;-83
2021/08/24 02:57:12;;;;;;;8.65;5.50;;;563.70;2432.00;;;;;;5025120;28;20071;-77
2021/08/24 02:59:38;;;;;;;7.03;3.97;;;563.60;2432.00;;;;;;5031390;28;20037;-82
2021/08/24 03:02:14;;;;;;;5.57;4.03;;;563.40;2432.00;;;;;;5032477;28;20025;-82
2021/08/24 03:04:40;;;;;;;8.80;3.90;;;563.20;2432.00;;;;;;5028047;28;20105;-83
2021/08/24 03:07:12;;;;;;;6.57;3.78;;;563.30;2432.00;;;;;;5031046;28;20037;-80
2021/08/24 03:09:40;;;;;;;7.47;3.85;;;538.50;2406.40;;;;;;5028629;28;20038;-83
2021/08/24 03:12:06;;;;;;;9.88;4.03;;;538.50;2406.40;;;;;;5031132;28;20067;-77
2021/08/24 03:14:53;;;;;;;6.75;3.63;;;538.40;2406.40;;;;;;5092348;28;20111;-75
2021/08/24 03:17:30;;;;;;;7.72;3.83;;;538.30;2406.40;;;;;;5093868;28;20019;-84
2021/08/24 03:19:59;;;;;;;8.77;3.85;;;537.80;2406.40;;;;;;5103251;28;20102;-75
2021/08/24 03:22:25;;;;;;;6.45;3.20;;;538.00;2406.40;;;;;;5109085;28;20098;-82
2021/08/24 03:24:52;;;;;;;6.93;3.33;;;537.80;2406.40;;;;;;5109810;28;20107;-78
2021/08/24 03:27:21;;;;;;;10.20;3.45;;;512.90;2380.80;;;;;;5108892;28;20047;-80
2021/08/24 03:30:05;;;;;;;7.95;3.47;;;512.90;2380.80;;;;;;5113471;28;20484;-75
2021/08/24 03:32:30;;;;;;;7.07;3.30;;;512.50;2380.80;;;;;;5105342;28;20499;-86
2021/08/24 03:34:56;;;;;;;7.00;2.95;;;512.40;2380.80;;;;;;5107060;28;20027;-75
2021/08/24 03:37:22;;;;;;;8.18;3.08;;;512.40;2380.80;;;;;;5103141;28;20055;-83
2021/08/24 03:39:47;;;;;;;7.75;2.90;;;512.60;2380.80;;;;;;5108581;28;20099;-76
2021/08/24 03:42:14;;;;;;;6.97;3.40;;;512.90;2380.80;;;;;;5103167;28;20047;-76
2021/08/24 03:44:40;;;;;;;4.85;2.83;;;512.90;2380.80;;;;;;5107136;28;20011;-75
2021/08/24 03:47:05;;;;;;;5.47;2.83;;;537.70;2406.40;;;;;;5104942;28;20052;-84
2021/08/24 03:49:31;;;;;;;4.78;2.80;;;537.70;2406.40;;;;;;5104979;28;20035;-75
2021/08/24 03:51:57;;;;;;;8.00;3.13;;;537.60;2406.40;;;;;;5106991;28;20119;-84
2021/08/24 03:54:22;;;;;;;4.43;2.72;;;537.90;2406.40;;;;;;5102109;28;20047;-75
2021/08/24 03:56:48;;;;;;;6.00;2.90;;;538.00;2406.40;;;;;;5104100;28;20395;-75
2021/08/24 03:59:14;;;;;;;5.30;2.60;;;538.00;2406.40;;;;;;5096915;28;20032;-84
2021/08/24 04:01:39;;;;;;;7.15;3.08;;;538.10;2406.40;;;;;;5096898;28;20102;-75
2021/08/24 04:04:05;;;;;;;6.20;2.63;;;538.10;2406.40;;;;;;5115064;28;20039;-76
2021/08/24 04:06:31;;;;;;;4.15;2.67;;;538.10;2406.40;;;;;;5114541;28;20030;-78
2021/08/24 04:08:57;;;;;;;3.90;2.20;;;538.10;2406.40;;;;;;5103608;28;20028;-84
2021/08/24 04:11:22;;;;;;;5.05;2.80;;;538.10;2406.40;;;;;;5111798;28;20023;-80
2021/08/24 04:13:48;;;;;;;6.30;2.85;;;538.10;2406.40;;;;;;5114882;28;20106;-79
2021/08/24 04:16:14;;;;;;;7.80;2.58;;;538.00;2406.40;;;;;;5114952;28;20027;-83
2021/08/24 04:18:41;;;;;;;4.03;2.60;;;537.60;2406.40;;;;;;5114812;28;20027;-84
2021/08/24 04:21:13;;;;;;;4.53;2.20;;;537.60;2406.40;;;;;;5114678;28;20019;-75
2021/08/24 04:23:42;;;;;;;4.53;2.50;;;537.80;2406.40;;;;;;5086297;28;20069;-76
2021/08/24 04:26:08;;;;;;;8.02;2.72;;;538.00;2406.40;;;;;;5114536;28;20024;-75
2021/08/24 04:28:34;;;;;;;5.03;2.60;;;538.00;2406.40;;;;;;5114079;28;20088;-82
2021/08/24 04:31:05;;;;;;;5.10;2.63;;;538.10;2406.40;;;;;;5103488;28;20016;-76
2021/08/24 04:33:32;;;;;;;6.20;3.33;;;537.80;2406.40;;;;;;5092992;28;20031;-75
2021/08/24 04:35:58;;;;;;;6.15;2.78;;;537.60;2406.40;;;;;;5114199;28;20483;-76
2021/08/24 04:38:24;;;;;;;3.70;2.38;;;537.80;2406.40;;;;;;5114160;28;20028;-75
2021/08/24 04:40:50;;;;;;;5.47;3.08;;;537.80;2406.40;;;;;;5096286;28;20020;-85
2021/08/24 04:43:17;;;;;;;5.20;2.92;;;537.90;2406.40;;;;;;5100347;28;20028;-75
2021/08/24 04:45:43;;;;;;;5.20;2.60;;;538.00;2406.40;;;;;;5114242;28;20011;-75
2021/08/24 04:48:09;;;;;;;5.85;3.13;;;537.70;2406.40;;;;;;5114297;28;20035;-76
2021/08/24 04:50:35;;;;;;;6.28;3.00;;;537.60;2406.40;;;;;;5099905;28;20081;-84
2021/08/24 04:53:01;;;;;;;4.35;2.35;;;512.90;2380.80;;;;;;5114069;28;20020;-75
2021/08/24 04:55:26;;;;;;;4.47;3.03;;;512.90;2380.80;;;;;;5101723;28;20059;-83
2021/08/24 04:57:52;;;;;;;5.40;3.00;;;512.90;2380.80;;;;;;5093761;28;20030;-76
2021/08/24 05:00:18;;;;;;;5.90;2.50;;;537.60;2406.40;;;;;;5093788;28;20069;-83
2021/08/24 05:02:44;;;;;;;5.03;3.10;;;537.60;2406.40;;;;;;5110149;28;20023;-76
2021/08/24 05:05:10;;;;;;;4.15;2.90;;;537.60;2406.40;;;;;;5113861;28;20031;-83
2021/08/24 05:07:35;;;;;;;4.50;2.67;;;537.80;2406.40;;;;;;5113752;28;20092;-76
2021/08/24 05:10:03;;;;;;;5.40;2.92;;;537.90;2406.40;;;;;;5085700;28;20027;-76
2021/08/24 05:12:30;;;;;;;6.05;3.00;;;537.90;2406.40;;;;;;5113899;28;20027;-83
2021/08/24 05:14:56;;;;;;;4.80;3.08;;;538.00;2406.40;;;;;;5095524;28;20460;-83
2021/08/24 05:17:22;;;;;;;4.82;2.67;;;537.90;2406.40;;;;;;5103198;28;20031;-81
2021/08/24 05:19:48;;;;;;;4.63;2.60;;;538.00;2406.40;;;;;;5110216;28;20023;-83
2021/08/24 05:22:14;;;;;;;3.90;2.58;;;538.00;2406.40;;;;;;5113705;28;20024;-76
2021/08/24 05:24:39;;;;;;;6.53;3.00;;;538.00;2406.40;;;;;;5113497;28;20046;-84
2021/08/24 05:27:06;;;;;;;4.07;2.50;;;538.00;2406.40;;;;;;5100357;28;20539;-82
2021/08/24 05:29:32;;;;;;;4.28;2.67;;;538.00;2406.40;;;;;;5113655;28;20038;-74
2021/08/24 05:31:58;;;;;;;4.25;2.67;;;538.00;2406.40;;;;;;5113551;28;20019;-76
2021/08/24 05:34:23;;;;;;;4.80;2.67;;;538.00;2406.40;;;;;;5113664;28;20053;-75
2021/08/24 05:36:49;;;;;;;5.78;2.88;;;538.00;2406.40;;;;;;5096379;28;20032;-75
2021/08/24 05:39:15;;;;;;;5.38;2.85;;;538.10;2406.40;;;;;;5094392;28;20350;-75
2021/08/24 05:41:41;;;;;;;4.55;2.42;;;538.00;2406.40;;;;;;5097830;28;20103;-75
2021/08/24 05:44:08;;;;;;;3.85;2.75;;;538.00;2406.40;;;;;;5098545;28;20020;-80
2021/08/24 05:46:34;;;;;;;7.63;2.95;;;537.90;2406.40;;;;;;5097106;28;20485;-80
2021/08/24 05:49:00;;;;;;;3.80;2.20;;;538.00;2406.40;;;;;;5094313;28;20057;-77
2021/08/24 05:51:25;;;;;;;5.05;2.75;;;538.00;2406.40;;;;;;5096376;28;20430;-81
2021/08/24 05:53:52;;;;;;;4.95;3.08;;;538.00;2406.40;;;;;;5096261;28;20032;-80
2021/08/24 05:56:24;;;;;;;6.15;2.55;;;537.90;2406.40;;;;;;5096269;28;20036;-75
2021/08/24 05:58:51;;;;;;;5.45;3.65;;;537.80;2406.40;;;;;;5104041;28;20020;-81
2021/08/24 06:01:23;;;;;;;4.75;3.10;;;537.70;2406.40;;;;;;5103122;28;20019;-79
2021/08/24 06:03:49;;;;;;;5.75;3.50;;;537.80;2406.40;;;;;;5096025;28;20111;-85
2021/08/24 06:06:23;;;;;;;7.32;3.25;;;538.00;2406.40;;;;;;5096748;28;20117;-81
2021/08/24 06:08:49;;;;;;;4.82;3.05;;;538.00;2406.40;;;;;;5096495;28;20024;-75
2021/08/24 06:11:20;;;;;;;5.70;3.08;;;538.00;2406.40;;;;;;5097269;28;20085;-74
2021/08/24 06:13:46;;;;;;;4.60;2.75;;;537.90;2406.40;;;;;;5097134;28;20020;-79
2021/08/24 06:16:12;;;;;;;5.55;2.47;;;537.90;2406.40;;;;;;5097142;28;20020;-75
2021/08/24 06:18:39;;;;;;;4.97;2.50;;;537.80;2406.40;;;;;;5096874;28;20380;-79
2021/08/24 06:21:04;;;;;;;6.15;2.92;;;537.80;2406.40;;;;;;5096756;28;20020;-75
2021/08/24 06:23:30;;;;;;;5.35;3.00;;;537.90;2406.40;;;;;;5096844;28;20020;-75
2021/08/24 06:25:56;;;;;;;4.53;2.72;;;538.00;2406.40;;;;;;5096716;28;20024;-77
2021/08/24 06:28:22;;;;;;;6.60;2.90;;;538.00;2406.40;;;;;;5096903;28;20079;-75
2021/08/24 06:30:47;;;;;;;4.47;3.00;;;537.90;2406.40;;;;;;5096604;28;20508;-74
2021/08/24 06:33:14;;;;;;;5.30;3.45;;;538.00;2406.40;;;;;;5078192;28;20096;-76
2021/08/24 06:35:40;;;;;;;6.13;3.30;;;537.80;2406.40;;;;;;5096432;28;20099;-75
2021/08/24 06:38:05;;;;;;;5.00;3.05;;;537.90;2406.40;;;;;;5096472;28;20064;-76
2021/08/24 06:40:32;;;;;;;6.30;3.65;;;537.70;2406.40;;;;;;5096524;28;20381;-75
2021/08/24 06:42:58;;;;;;;6.05;3.35;;;537.80;2406.40;;;;;;5078102;28;20028;-78
2021/08/24 06:45:30;;;;;;;5.45;3.20;;;537.70;2406.40;;;;;;5096495;28;20016;-75
2021/08/24 06:47:57;;;;;;;5.53;2.92;;;537.80;2406.40;;;;;;5096049;28;20028;-75
2021/08/24 06:50:24;;;;;;;4.60;2.90;;;537.70;2406.40;;;;;;5096008;28;20028;-81
2021/08/24 06:52:50;;;;;;;6.70;2.97;;;537.80;2406.40;;;;;;5077275;28;20392;-78
2021/08/24 06:55:17;;;;;;;3.83;2.70;;;538.00;2406.40;;;;;;5095045;28;20044;-77
2021/08/24 06:57:44;;;;;;;4.68;3.20;;;537.90;2406.40;;;;;;5095481;28;20178;-76
2021/08/24 07:00:19;;;;;;;6.80;3.42;;;537.90;2406.40;;;;;;5102129;28;20020;-84
2021/08/24 07:02:45;;;;;;;4.15;2.85;;;538.00;2406.40;;;;;;5111564;28;20557;-75
2021/08/24 07:05:12;;;;;;;3.40;2.30;;;537.90;2406.40;;;;;;5112966;28;20099;-75
2021/08/24 07:07:38;;;;;;;4.35;2.90;;;537.80;2406.40;;;;;;5112747;28;20036;-75
2021/08/24 07:10:06;;;;;;;4.72;2.67;;;538.00;2406.40;;;;;;5111335;28;20020;-75
2021/08/24 07:12:32;;;;;;;5.78;2.95;;;537.90;2406.40;;;;;;5113237;28;20031;-76
2021/08/24 07:14:58;;;;;;;10.05;3.45;;;537.60;2406.40;;;;;;5110571;28;20077;-75
2021/08/24 07:17:25;;;;;;;7.22;2.97;;;537.60;2406.40;;;;;;5080683;28;20028;-81
2021/08/24 07:19:52;;;;;;;4.90;3.25;;;537.70;2406.40;;;;;;5095283;28;20024;-82
2021/08/24 07:22:18;;;;;;;4.55;3.20;;;537.70;2406.40;;;;;;5096534;28;20020;-76
2021/08/24 07:24:43;;;;;;;8.20;3.85;;;537.70;2406.40;;;;;;5103180;28;20469;-81
2021/08/24 07:27:09;;;;;;;6.15;3.45;;;537.70;2406.40;;;;;;5077117;28;20035;-75
2021/08/24 07:29:35;;;;;;;5.20;3.50;;;537.70;2406.40;;;;;;5102398;28;20024;-75
2021/08/24 07:32:02;;;;;;;7.68;3.60;;;537.80;2406.40;;;;;;5104261;28;20024;-85
2021/08/24 07:34:28;;;;;;;4.35;3.00;;;537.60;2406.40;;;;;;5096169;28;20469;-79
2021/08/24 07:36:54;;;;;;;10.57;4.07;;;537.70;2406.40;;;;;;5094358;28;20024;-83
2021/08/24 07:39:20;;;;;;;4.47;3.05;;;537.70;2406.40;;;;;;5094904;28;20016;-79
2021/08/24 07:41:46;;;;;;;6.18;3.42;;;537.80;2406.40;;;;;;5106686;28;20392;-75
2021/08/24 07:44:12;;;;;;;6.50;3.95;;;537.80;2406.40;;;;;;5106197;28;20024;-76
2021/08/24 07:46:37;;;;;;;5.45;3.78;;;537.90;2406.40;;;;;;5110569;28;20028;-76
2021/08/24 07:49:03;;;;;;;6.03;3.70;;;538.00;2406.40;;;;;;5108614;28;20032;-75
2021/08/24 07:51:29;;;;;;;5.72;3.78;;;538.00;2406.40;;;;;;5112710;28;20019;-76
2021/08/24 07:53:55;;;;;;;4.80;3.38;;;537.80;2406.40;;;;;;5108722;28;20023;-75
2021/08/24 07:56:24;;;;;;;6.03;3.25;;;538.00;2406.40;;;;;;5100955;28;20035;-75
2021/08/24 07:58:49;;;;;;;5.10;3.25;;;538.10;2406.40;;;;;;5103130;28;20028;-76
2021/08/24 08:01:15;;;;;;;5.45;3.70;;;538.20;2406.40;;;;;;5111990;28;20012;-75
2021/08/24 08:03:41;;;;;;;5.97;4.07;;;538.40;2406.40;;;;;;5114239;28;20094;-75
2021/08/24 08:06:07;;;;;;;4.97;3.17;;;538.30;2406.40;;;;;;5096237;28;20127;-75
2021/08/24 08:08:33;;;;;;;4.55;2.95;;;538.10;2406.40;;;;;;5114488;28;20050;-75
2021/08/24 08:11:00;;;;;;;6.88;3.38;;;538.30;2406.40;;;;;;5114674;28;20064;-76
2021/08/24 08:13:27;;;;;;;4.47;3.10;;;538.40;2406.40;;;;;;5105497;28;20055;-77
2021/08/24 08:15:53;;;;;;;5.45;3.70;;;538.50;2406.40;;;;;;5096224;28;20085;-75
2021/08/24 08:18:18;;;;;;;5.85;3.67;;;538.40;2406.40;;;;;;5093945;28;20035;-78
2021/08/24 08:20:45;;;;;;;5.93;3.53;;;538.50;2406.40;;;;;;5091158;28;20016;-75
2021/08/24 08:23:13;;;;;;;6.15;3.97;;;538.50;2406.40;;;;;;5093667;28;20103;-78
2021/08/24 08:25:39;;;;;;;7.35;4.47;;;563.20;2432.00;;;;;;5096011;28;20115;-79
2021/08/24 08:28:05;;;;;;;7.47;4.05;;;563.30;2432.00;;;;;;5095787;28;20111;-77
2021/08/24 08:30:32;;;;;;;6.65;3.70;;;563.30;2432.00;;;;;;5095863;28;20055;-75
2021/08/24 08:32:59;;;;;;;6.72;4.30;;;563.30;2432.00;;;;;;5093444;28;20488;-80
2021/08/24 08:35:25;;;;;;;7.15;4.65;;;563.40;2432.00;;;;;;5093624;28;20484;-75
2021/08/24 08:37:51;;;;;;;7.78;4.60;;;563.50;2432.00;;;;;;5093371;28;20446;-79
2021/08/24 08:40:54;;;;;;;6.88;4.93;;;563.30;2432.00;;;;;;5093260;28;20480;-78
2021/08/24 08:43:47;;;;;;;6.20;4.25;;;538.50;2406.40;;;;;;5091520;28;20494;-75
2021/08/24 08:46:28;;;;;;;6.72;5.03;;;563.30;2432.00;;;;;;5093195;28;20066;-78
2021/08/24 08:49:20;;;;;;;6.55;5.20;;;563.20;2432.00;;;;;;5090407;28;20085;-76
2021/08/24 08:52:12;;;;;;;7.30;4.93;;;563.30;2432.00;;;;;;5093370;28;20028;-76
2021/08/24 08:55:06;;;;;;;7.13;4.82;;;563.30;2432.00;;;;;;5072649;28;20151;-78
2021/08/24 08:57:36;;;;;;;7.40;5.10;;;563.30;2432.00;;;;;;5092747;28;20020;-76
2021/08/24 09:00:09;;;;;;;7.65;5.30;;;538.50;2406.40;;;;;;5093327;28;20024;-76
2021/08/24 09:02:49;;;;;;;8.95;4.97;;;563.20;2432.00;;;;;;5090480;28;20409;-76
2021/08/24 09:05:20;;;;;;;8.45;5.55;;;563.20;2432.00;;;;;;5090126;28;20473;-75
2021/08/24 09:07:50;;;;;;;7.05;5.10;;;563.20;2432.00;;;;;;5092831;28;20036;-77
2021/08/24 09:10:27;;;;;;;7.63;5.32;;;538.50;2406.40;;;;;;5090321;28;20473;-78
2021/08/24 09:12:59;;;;;;;7.60;5.40;;;538.50;2406.40;;;;;;5092679;28;20039;-78
2021/08/24 09:16:08;;;;;;;6.43;4.97;;;563.20;2432.00;;;;;;5092813;28;20016;-78
2021/08/24 09:18:54;;;;;;;7.07;5.70;;;563.20;2432.00;;;;;;5030890;28;20056;-77
2021/08/24 09:21:41;;;;;;;6.25;4.53;;;538.50;2406.40;;;;;;5031373;28;20048;-75
2021/08/24 09:24:12;;;;;;;7.95;5.15;;;538.40;2406.40;;;;;;5029392;28;20122;-76
2021/08/24 09:27:25;;;;;;;7.30;5.57;;;563.30;2432.00;;;;;;5028159;28;20156;-78
2021/08/24 09:29:51;;;;;;;6.40;5.15;;;563.20;2432.00;;;;;;4971566;28;20046;-75
2021/08/24 09:32:25;;;;;;;8.05;4.95;;;563.30;2432.00;;;;;;4971634;28;20469;-77
2021/08/24 09:34:59;;;;;;;8.00;5.40;;;563.40;2432.00;;;;;;4976292;28;20104;-75
2021/08/24 09:37:26;;;;;;;5.78;3.95;;;563.30;2432.00;;;;;;4980945;28;20144;-77
2021/08/24 09:39:58;;;;;;;7.32;4.35;;;563.30;2432.00;;;;;;4971325;28;20143;-78
2021/08/24 09:42:42;;;;;;;6.85;4.60;;;563.40;2432.00;;;;;;4971390;28;20042;-75
2021/08/24 09:45:20;;;;;;;7.95;4.47;;;563.50;2432.00;;;;;;4984664;28;20030;-78
2021/08/24 09:48:04;;;;;;;6.90;4.35;;;563.30;2432.00;;;;;;4961922;28;20094;-77
2021/08/24 09:50:43;;;;;;;7.75;5.20;;;563.30;2432.00;;;;;;4971561;28;20045;-77
2021/08/24 09:53:30;;;;;;;6.30;4.72;;;563.30;2432.00;;;;;;4972108;28;20477;-79
2021/08/24 09:55:56;;;;;;;6.03;4.32;;;563.40;2432.00;;;;;;4981845;28;20567;-77
2021/08/24 09:58:33;;;;;;;5.45;4.18;;;563.30;2432.00;;;;;;4980029;28;20034;-78
2021/08/24 10:01:03;;;;;;;5.68;4.22;;;563.30;2432.00;;;;;;4982951;28;20019;-78
2021/08/24 10:03:36;;;;;;;6.53;4.90;;;563.40;2432.00;;;;;;5027655;28;20039;-78
2021/08/24 10:06:25;;;;;;;6.63;4.45;;;563.20;2432.00;;;;;;5092468;28;20028;-78
2021/08/24 10:09:16;;;;;;;7.90;5.22;;;538.50;2406.40;;;;;;5092298;28;20031;-76
2021/08/24 10:11:43;;;;;;;7.07;4.72;;;563.20;2432.00;;;;;;5091019;28;20024;-75
2021/08/24 10:14:22;;;;;;;8.93;5.65;;;563.30;2432.00;;;;;;5074273;28;20052;-78
2021/08/24 10:16:51;;;;;;;6.72;5.10;;;563.20;2432.00;;;;;;5093674;28;20034;-75
2021/08/24 10:19:25;;;;;;;5.95;5.00;;;563.30;2432.00;;;;;;5100446;28;20071;-75
2021/08/24 10:21:50;;;;;;;5.82;4.63;;;563.30;2432.00;;;;;;5111461;28;20069;-78
2021/08/24 10:24:24;;;;;;;7.70;4.20;;;563.40;2432.00;;;;;;5112407;28;20411;-75
2021/08/24 10:26:54;;;;;;;7.50;4.45;;;563.40;2432.00;;;;;;5115535;28;20058;-78
2021/08/24 10:29:26;;;;;;;6.30;4.43;;;563.40;2432.00;;;;;;5116229;28;20034;-78
2021/08/24 10:32:02;;;;;;;5.32;3.85;;;563.40;2432.00;;;;;;5115757;28;20069;-78
2021/08/24 10:34:31;;;;;;;;;;;563.50;2432.00;;;;;;5116098;28;20023;-76
2021/08/24 10:37:26;;;;;;;6.30;3.78;;;563.40;2432.00;;;;;;5095736;28;19912;-77
2021/08/24 10:40:13;;;;;;;6.32;4.43;;;563.40;2432.00;;;;;;5076772;28;20028;-75
2021/08/24 10:42:57;;;;;;;5.68;4.00;;;563.30;2432.00;;;;;;5097093;28;20037;-75
2021/08/24 10:45:26;;;;;;;6.22;4.43;;;563.50;2432.00;;;;;;5095597;28;20016;-77
2021/08/24 10:47:58;;;;;;;5.05;3.97;;;563.30;2432.00;;;;;;5095474;28;20020;-75
2021/08/24 10:50:40;;;;;;;5.22;3.78;;;563.20;2432.00;;;;;;5093338;28;20095;-75
2021/08/24 10:53:43;;;;;;;6.47;3.97;;;563.50;2432.00;;;;;;5093450;28;20043;-75
2021/08/24 10:56:32;;;;;;;6.07;3.97;;;563.50;2432.00;;;;;;5012813;28;20046;-75
2021/08/24 10:59:32;;;;;;;6.60;3.70;;;563.60;2432.00;;;;;;5013232;28;20037;-77
2021/08/24 11:02:11;;;;;;;7.47;4.03;;;563.60;2432.00;;;;;;5013244;28;20026;-75
2021/08/24 11:04:36;;;;;;;6.18;4.25;;;563.60;2432.00;;;;;;5010800;28;20025;-75
2021/08/24 11:07:21;;;;;;;6.03;3.55;;;563.60;2432.00;;;;;;5012475;28;20046;-78
2021/08/24 11:09:58;;;;;;;5.55;3.25;;;563.60;2432.00;;;;;;5012709;28;20109;-75
2021/08/24 11:12:47;;;;;;;4.93;3.47;;;563.60;2432.00;;;;;;5012982;28;20109;-76
2021/08/24 11:15:47;;;;;;;6.10;3.67;;;563.70;2432.00;;;;;;5013075;28;20025;-77
2021/08/24 11:18:30;;;;;;;5.93;3.30;;;563.80;2432.00;;;;;;5012992;28;20037;-77
2021/08/24 11:21:17;;;;;;;4.90;3.20;;;563.90;2432.00;;;;;;5012913;28;20391;-77
2021/08/24 11:23:50;;;;;;;4.60;3.60;;;563.90;2432.00;;;;;;5012527;28;20026;-76
2021/08/24 11:26:55;;;;;;;4.80;3.47;;;564.10;2432.00;;;;;;5012469;28;20041;-76
2021/08/24 11:29:36;;;;;;;4.78;2.90;;;564.10;2432.00;;;;;;5013131;28;20038;-76
2021/08/24 11:32:12;;;;;;;5.97;3.72;;;564.10;2380.80;;;;;;5033494;28;20022;-75
2021/08/24 11:34:41;;;;;;;6.00;3.10;;;563.80;2432.00;;;;;;5110356;28;20020;-76
2021/08/24 11:37:18;;;;;;;4.78;2.88;;;563.90;2432.00;;;;;;5095119;28;20418;-78
2021/08/24 11:39:55;;;;;;;4.90;3.53;;;563.90;2432.00;;;;;;5092820;28;20040;-78
2021/08/24 11:42:41;;;;;;;5.50;3.03;;;563.70;2432.00;;;;;;5092586;28;20016;-78
2021/08/24 11:45:23;;;;;;;4.65;3.15;;;564.00;2432.00;;;;;;5093396;28;20020;-79
2021/08/24 11:47:58;;;;;;;7.03;3.53;;;564.00;2432.00;;;;;;5093678;28;20103;-78
2021/08/24 11:50:38;;;;;;;4.13;2.97;;;564.10;2432.00;;;;;;5075197;28;20020;-75
2021/08/24 11:53:10;;;;;;;6.20;3.20;;;564.00;2432.00;;;;;;5092628;28;20499;-76
2021/08/24 11:55:39;;;;;;;7.35;3.80;;;563.90;2432.00;;;;;;5090898;28;20057;-75
2021/08/24 11:58:27;;;;;;;6.35;3.03;;;564.10;2406.40;;;;;;5094150;28;20024;-76
2021/08/24 12:00:59;;;;;;;9.07;4.07;;;564.10;2355.20;;;;;;5094177;28;20073;-75
2021/08/24 12:03:25;;;;;;;4.30;2.58;;;588.80;2329.60;;;;;;5094002;28;20051;-76
2021/08/24 12:06:05;;;;;;;5.25;3.25;;;588.80;2380.80;;;;;;5093743;28;20051;-78
2021/08/24 12:08:39;;;;;;;6.50;3.35;;;588.80;2355.20;;;;;;5094079;28;20072;-78
2021/08/24 12:11:09;;;;;;;4.22;3.20;;;564.10;2432.00;;;;;;5094129;28;20062;-78
2021/08/24 12:13:39;;;;;;;4.68;3.13;;;588.80;2380.80;;;;;;5093606;28;20031;-75
2021/08/24 12:16:21;;;;;;;5.03;3.22;;;588.90;2406.40;;;;;;5093942;28;20012;-77
2021/08/24 12:18:54;;;;;;;6.00;3.63;;;589.00;2380.80;;;;;;5092788;28;20031;-79
2021/08/24 12:21:33;;;;;;;5.43;3.25;;;589.00;2355.20;;;;;;5091826;28;20031;-77
2021/08/24 12:24:28;;;;;;;7.57;3.80;;;589.00;2304.00;;;;;;5091832;28;20028;-79
2021/08/24 12:26:57;;;;;;;8.85;4.30;;;589.10;2304.00;;;;;;5093615;28;20025;-77
2021/08/24 12:29:35;;;;;;;13.38;5.00;;;589.00;2355.20;;;;;;5101195;28;20027;-78
2021/08/24 12:32:07;;;;;;;11.45;4.68;;;588.80;2406.40;;;;;;5094050;28;20028;-78
2021/08/24 12:34:33;;;;;;;5.68;4.13;;;588.80;2432.00;;;;;;5093525;28;20070;-76
2021/08/24 12:37:03;;;;;;;4.70;3.53;;;564.00;2432.00;;;;;;5093579;28;20036;-79
2021/08/24 12:39:39;;;;;;;6.45;4.10;;;564.10;2432.00;;;;;;5091402;28;20012;-76
2021/08/24 12:42:28;;;;;;;7.32;4.10;;;564.10;2432.00;;;;;;5070258;28;20012;-76